Altair — 9LC2000 — position and weather

sailwx.info

Track history (hours):
 
Tides and Currents Weather Stations Pressure Air Temp Water Temp Dewpoint Dewpoint Depression Visibility Wind Speed Wind Dir Waves Ship Positions

Altair

Last reported at 2016-Aug-19 16:33 UTC. Time now 2016-Aug-25 22:02 UTC.
Position N 45°52' E 037°00'.

Length 108 m; draft 2.6 m.

Type: Cargo ship. MMSI: 667021000.

Date/timePositionNaut miles runAvg speedWind from/ knotsBaromVisibWave heightAir tempDewpointWater temp
2016-Aug-19 16:33N 45°52' E 037°00'16 7.8
2016-Aug-19 14:33N 45°38' E 036°52'8 7.6
2016-Aug-19 13:32N 45°31' E 036°46'8 7.9
2016-Aug-19 12:33N 45°24' E 036°41'7 7.3
2016-Aug-19 11:33N 45°19' E 036°33'5 5.1
2016-Aug-19 10:33N 45°16' E 036°29'6 6.2
2016-Aug-19 09:33N 45°09' E 036°29'8 6.6
2016-Aug-19 08:21N 45°02' E 036°31'8 6.8
2016-Aug-19 07:15N 44°54' E 036°32'14 0.6
2016-Aug-18 09:25N 45°08' E 036°29'6 6.9
2016-Aug-18 08:33N 45°14' E 036°28'5 4.8
2016-Aug-18 07:33N 45°18' E 036°30'6 6.3
2016-Aug-18 06:33N 45°21' E 036°38'6 6.2
2016-Aug-18 05:34N 45°27' E 036°40'3 1.1
2016-Aug-18 02:30N 45°30' E 036°37'6 6.4
2016-Aug-18 01:33N 45°34' E 036°43'  
2016-Aug-13 04:26N 47°02' E 038°53'0 0.0
2016-Aug-13 02:26N 47°02' E 038°53'0 0.0
2016-Aug-12 23:32N 47°02' E 038°53'0 0.0
2016-Aug-12 22:23N 47°02' E 038°53'0 0.0
2016-Aug-12 21:17N 47°02' E 038°53'0 0.0
2016-Aug-12 20:29N 47°02' E 038°53'0 0.0
2016-Aug-12 09:23N 47°02' E 038°53'0 0.0
2016-Aug-12 04:17N 47°02' E 038°53'0 0.0
2016-Aug-11 00:09N 47°02' E 038°53'0 0.0
2016-Aug-10 23:21N 47°02' E 038°53'0 0.0
2016-Aug-10 22:33N 47°02' E 038°53'  
Track history (hours):
 
Tides and Currents Weather Stations Pressure Air Temp Water Temp Dewpoint Dewpoint Depression Visibility Wind Speed Wind Dir Waves Ship Positions

Altair

Last reported at 2016-Aug-19 16:33 UTC. Time now 2016-Aug-25 22:02 UTC.
Position N 45°52' E 037°00'.

Length 108 m; draft 2.6 m.

Type: Cargo ship. MMSI: 667021000.

Date/timePositionNaut miles runAvg speedWind from/ knotsBaromVisibWave heightAir tempDewpointWater temp
2016-Aug-19 16:33N 45°52' E 037°00'16 7.8
2016-Aug-19 14:33N 45°38' E 036°52'8 7.6
2016-Aug-19 13:32N 45°31' E 036°46'8 7.9
2016-Aug-19 12:33N 45°24' E 036°41'7 7.3
2016-Aug-19 11:33N 45°19' E 036°33'5 5.1
2016-Aug-19 10:33N 45°16' E 036°29'6 6.2
2016-Aug-19 09:33N 45°09' E 036°29'8 6.6
2016-Aug-19 08:21N 45°02' E 036°31'8 6.8
2016-Aug-19 07:15N 44°54' E 036°32'14 0.6
2016-Aug-18 09:25N 45°08' E 036°29'6 6.9
2016-Aug-18 08:33N 45°14' E 036°28'5 4.8
2016-Aug-18 07:33N 45°18' E 036°30'6 6.3
2016-Aug-18 06:33N 45°21' E 036°38'6 6.2
2016-Aug-18 05:34N 45°27' E 036°40'3 1.1
2016-Aug-18 02:30N 45°30' E 036°37'6 6.4
2016-Aug-18 01:33N 45°34' E 036°43'  
2016-Aug-13 04:26N 47°02' E 038°53'0 0.0
2016-Aug-13 02:26N 47°02' E 038°53'0 0.0
2016-Aug-12 23:32N 47°02' E 038°53'0 0.0
2016-Aug-12 22:23N 47°02' E 038°53'0 0.0
2016-Aug-12 21:17N 47°02' E 038°53'0 0.0
2016-Aug-12 20:29N 47°02' E 038°53'0 0.0
2016-Aug-12 09:23N 47°02' E 038°53'0 0.0
2016-Aug-12 04:17N 47°02' E 038°53'0 0.0
2016-Aug-11 00:09N 47°02' E 038°53'0 0.0
2016-Aug-10 23:21N 47°02' E 038°53'0 0.0
2016-Aug-10 22:33N 47°02' E 038°53'  

Dump ship's entire track history